createdAt,value
2023-03-22T00:01:19.517Z,11.40
2023-03-22T00:03:48.219Z,10.87
2023-03-22T00:06:16.360Z,10.23
2023-03-22T00:08:44.708Z,11.60
2023-03-22T00:11:13.946Z,11.23
2023-03-22T00:13:46.825Z,12.10
2023-03-22T00:16:14.747Z,10.33
2023-03-22T00:18:42.839Z,10.87
2023-03-22T00:21:13.515Z,12.23
2023-03-22T00:23:41.690Z,11.30
2023-03-22T00:26:09.776Z,10.63
2023-03-22T00:28:38.865Z,11.47
2023-03-22T00:31:07.644Z,12.07
2023-03-22T00:33:35.756Z,10.50
2023-03-22T00:36:06.487Z,12.60
2023-03-22T00:38:42.667Z,11.73
2023-03-22T00:41:13.224Z,11.00
2023-03-22T00:43:42.800Z,11.47
2023-03-22T00:46:11.343Z,11.30
2023-03-22T00:48:39.661Z,11.20
2023-03-22T00:51:08.046Z,10.90
2023-03-22T00:53:36.401Z,12.90
2023-03-22T00:56:04.548Z,13.00
2023-03-22T00:58:32.362Z,11.30
2023-03-22T01:01:01.498Z,11.53
2023-03-22T01:03:29.236Z,11.80
2023-03-22T01:05:56.952Z,12.00
2023-03-22T01:08:25.318Z,10.63
2023-03-22T01:10:53.458Z,11.83
2023-03-22T01:13:21.210Z,10.80
2023-03-22T01:15:51.467Z,11.10
2023-03-22T01:18:20.560Z,11.23
2023-03-22T01:20:48.287Z,11.63
2023-03-22T01:23:16.003Z,12.57
2023-03-22T01:25:43.804Z,12.33
2023-03-22T01:28:11.546Z,12.00
2023-03-22T01:30:41.025Z,11.60
2023-03-22T01:33:09.344Z,12.53
2023-03-22T01:35:38.466Z,10.90
2023-03-22T01:38:06.584Z,11.37
2023-03-22T01:40:34.732Z,13.30
2023-03-22T01:43:02.633Z,13.00
2023-03-22T01:45:48.230Z,12.20
2023-03-22T01:48:20.996Z,13.53
2023-03-22T01:50:56.936Z,12.60
2023-03-22T01:53:27.294Z,13.90
2023-03-22T01:55:57.976Z,11.97
2023-03-22T01:58:25.991Z,13.33
2023-03-22T02:00:54.637Z,13.37
2023-03-22T02:03:33.079Z,12.10
2023-03-22T02:06:02.162Z,11.43
2023-03-22T02:08:31.440Z,11.77
2023-03-22T02:10:59.283Z,11.47
2023-03-22T02:13:39.323Z,9.77
2023-03-22T02:16:18.803Z,11.80
2023-03-22T02:19:11.770Z,9.93
2023-03-22T02:22:09.753Z,10.97
2023-03-22T02:25:17.495Z,11.00
2023-03-22T02:28:21.405Z,11.43
2023-03-22T02:31:23.262Z,11.80
2023-03-22T02:34:35.474Z,11.67
2023-03-22T02:37:35.618Z,11.07
2023-03-22T02:40:13.099Z,12.33
2023-03-22T02:42:52.303Z,11.83
2023-03-22T02:45:29.018Z,11.90
2023-03-22T02:48:03.727Z,12.03
2023-03-22T02:50:39.464Z,11.33
2023-03-22T02:53:14.820Z,11.97
2023-03-22T02:55:49.819Z,12.40
2023-03-22T02:58:21.263Z,11.40
2023-03-22T03:00:52.083Z,11.17
2023-03-22T03:03:25.487Z,11.40
2023-03-22T03:05:57.630Z,12.20
2023-03-22T03:08:27.353Z,11.63
2023-03-22T03:10:59.918Z,12.10
2023-03-22T03:13:27.626Z,12.60
2023-03-22T03:16:00.673Z,11.70
2023-03-22T03:18:40.573Z,12.70
2023-03-22T03:21:19.919Z,11.47
2023-03-22T03:23:54.956Z,12.40
2023-03-22T03:26:34.292Z,12.67
2023-03-22T03:29:06.399Z,11.60
2023-03-22T03:31:42.414Z,11.57
2023-03-22T03:34:16.473Z,11.40
2023-03-22T03:36:50.159Z,12.30
2023-03-22T03:39:19.764Z,11.90
2023-03-22T03:41:51.738Z,11.00
2023-03-22T03:44:20.465Z,11.23
2023-03-22T03:46:49.336Z,11.83
2023-03-22T03:49:17.915Z,11.47
2023-03-22T03:51:50.850Z,12.47
2023-03-22T03:54:18.844Z,10.00
2023-03-22T03:56:48.764Z,11.97
2023-03-22T03:59:16.830Z,11.77
2023-03-22T04:01:49.865Z,10.93
2023-03-22T04:04:19.250Z,12.20
2023-03-22T04:06:46.998Z,12.20
2023-03-22T04:09:14.664Z,11.83
2023-03-22T04:11:42.519Z,11.80
2023-03-22T04:14:11.530Z,11.20
2023-03-22T04:16:39.233Z,11.63
2023-03-22T04:19:06.991Z,11.30
2023-03-22T04:21:34.704Z,12.00
2023-03-22T04:24:02.586Z,11.73
2023-03-22T04:26:30.300Z,11.07
2023-03-22T04:28:58.479Z,11.30
2023-03-22T04:31:27.669Z,12.40
2023-03-22T04:33:55.799Z,10.00
2023-03-22T04:36:23.915Z,11.77
2023-03-22T04:38:52.451Z,11.30
2023-03-22T04:41:20.232Z,12.47
2023-03-22T04:43:50.833Z,11.97
2023-03-22T04:46:21.163Z,11.63
2023-03-22T04:48:50.485Z,11.37
2023-03-22T04:51:18.181Z,11.30
2023-03-22T04:53:45.868Z,12.03
2023-03-22T04:56:15.341Z,10.93
2023-03-22T04:58:44.434Z,10.53
2023-03-22T05:01:14.096Z,11.80
2023-03-22T05:03:42.866Z,12.40
2023-03-22T05:06:12.098Z,12.70
2023-03-22T05:08:40.092Z,11.70
2023-03-22T05:11:09.934Z,11.67
2023-03-22T05:13:38.586Z,11.77
2023-03-22T05:16:07.498Z,12.13
2023-03-22T05:18:37.879Z,11.27
2023-03-22T05:21:06.695Z,12.00
2023-03-22T05:23:35.966Z,12.50
2023-03-22T05:26:04.181Z,12.20
2023-03-22T05:28:32.042Z,11.63
2023-03-22T05:30:59.756Z,11.60
2023-03-22T05:33:27.991Z,11.23
2023-03-22T05:35:55.875Z,11.57
2023-03-22T05:38:24.621Z,12.02
2023-03-22T05:40:53.863Z,11.70
2023-03-22T05:43:21.644Z,11.53
2023-03-22T05:45:49.438Z,11.73
2023-03-22T05:48:17.541Z,12.20
2023-03-22T05:50:48.411Z,11.80
2023-03-22T05:53:16.135Z,12.03
2023-03-22T05:55:44.804Z,11.10
2023-03-22T05:58:18.869Z,12.37
2023-03-22T06:00:49.463Z,12.10
2023-03-22T06:03:18.261Z,10.60
2023-03-22T06:05:46.558Z,11.83
2023-03-22T06:08:14.292Z,12.20
2023-03-22T06:10:42.593Z,11.83
2023-03-22T06:13:10.866Z,10.50
2023-03-22T06:15:39.901Z,11.30
2023-03-22T06:18:08.057Z,10.87
2023-03-22T06:20:36.151Z,11.03
2023-03-22T06:23:03.857Z,10.83
2023-03-22T06:25:31.780Z,11.30
2023-03-22T06:27:59.836Z,11.03
2023-03-22T06:30:27.731Z,10.43
2023-03-22T06:33:00.404Z,10.77
2023-03-22T06:35:28.224Z,9.97
2023-03-22T06:37:56.099Z,11.10
2023-03-22T06:40:23.862Z,10.30
2023-03-22T06:42:51.610Z,11.10
2023-03-22T06:45:19.453Z,11.40
2023-03-22T06:47:47.688Z,11.60
2023-03-22T06:50:17.284Z,10.33
2023-03-22T06:52:45.021Z,10.43
2023-03-22T06:55:12.891Z,11.77
2023-03-22T06:57:40.615Z,10.57
2023-03-22T07:00:10.027Z,10.73
2023-03-22T07:02:37.761Z,10.20
2023-03-22T07:05:06.228Z,11.30
2023-03-22T07:07:35.631Z,10.50
2023-03-22T07:10:03.426Z,10.70
2023-03-22T07:12:31.157Z,9.10
2023-03-22T07:14:58.992Z,9.90
2023-03-22T07:17:26.916Z,10.90
2023-03-22T07:19:54.677Z,9.40
2023-03-22T07:22:22.517Z,10.43
2023-03-22T07:24:57.258Z,9.57
2023-03-22T07:27:26.244Z,10.37
2023-03-22T07:29:54.147Z,11.03
2023-03-22T07:32:21.930Z,9.00
2023-03-22T07:34:49.744Z,9.67
2023-03-22T07:37:17.449Z,8.10
2023-03-22T07:39:45.265Z,9.47
2023-03-22T07:42:14.308Z,9.60
2023-03-22T07:44:42.062Z,9.97
2023-03-22T07:47:10.470Z,7.87
2023-03-22T07:49:38.668Z,9.20
2023-03-22T07:52:06.498Z,9.00
2023-03-22T07:54:34.749Z,8.00
2023-03-22T07:57:02.945Z,8.30
2023-03-22T07:59:32.131Z,9.70
2023-03-22T08:01:59.903Z,8.13
2023-03-22T08:04:28.036Z,7.43
2023-03-22T08:06:58.722Z,7.93
2023-03-22T08:09:26.680Z,8.47
2023-03-22T08:11:54.400Z,8.30
2023-03-22T08:14:35.940Z,8.13
2023-03-22T08:17:05.961Z,7.90
2023-03-22T08:19:34.079Z,8.40
2023-03-22T08:22:02.196Z,8.30
2023-03-22T08:24:30.216Z,7.97
2023-03-22T08:26:57.934Z,8.07
2023-03-22T08:29:25.838Z,7.73
2023-03-22T08:31:54.073Z,7.20
2023-03-22T08:34:23.466Z,6.77
2023-03-22T08:36:51.158Z,6.57
2023-03-22T08:39:18.998Z,7.37
2023-03-22T08:41:46.694Z,7.20
2023-03-22T08:44:14.388Z,6.93
2023-03-22T08:46:42.164Z,6.37
2023-03-22T08:49:10.422Z,6.83
2023-03-22T08:51:40.584Z,7.33
2023-03-22T08:54:08.488Z,7.80
2023-03-22T08:56:38.451Z,6.00
2023-03-22T08:59:06.607Z,6.57
2023-03-22T09:01:34.622Z,5.70
2023-03-22T09:04:02.641Z,6.53
2023-03-22T09:06:30.745Z,6.57
2023-03-22T09:08:59.813Z,6.60
2023-03-22T09:11:28.646Z,6.17
2023-03-22T09:13:56.431Z,5.13
2023-03-22T09:16:24.201Z,6.80
2023-03-22T09:18:52.012Z,5.60
2023-03-22T09:21:20.924Z,6.07
2023-03-22T09:23:50.359Z,6.30
2023-03-22T09:26:19.989Z,6.73
2023-03-22T09:28:47.827Z,6.50
2023-03-22T09:31:17.440Z,6.00
2023-03-22T09:33:46.270Z,5.87
2023-03-22T09:36:14.102Z,7.00
2023-03-22T09:38:42.182Z,5.30
2023-03-22T09:41:16.217Z,5.60
2023-03-22T09:43:51.381Z,5.00
2023-03-22T09:46:25.705Z,5.30
2023-03-22T09:48:53.713Z,4.87
2023-03-22T09:51:32.006Z,3.90
2023-03-22T09:54:00.109Z,4.30
2023-03-22T09:56:30.844Z,4.40
2023-03-22T09:59:06.870Z,4.30
2023-03-22T10:01:44.797Z,4.03
2023-03-22T10:04:27.656Z,4.23
2023-03-22T10:07:04.446Z,3.73
2023-03-22T10:09:39.156Z,4.50
2023-03-22T10:12:12.709Z,3.87
2023-03-22T10:14:45.507Z,4.17
2023-03-22T10:17:16.877Z,4.13
2023-03-22T10:19:52.076Z,4.70
2023-03-22T10:22:25.044Z,3.63
2023-03-22T10:24:54.304Z,4.13
2023-03-22T10:27:23.759Z,4.50
2023-03-22T10:29:57.826Z,3.47
2023-03-22T10:32:32.649Z,3.27
2023-03-22T10:35:00.569Z,3.67
2023-03-22T10:37:32.961Z,3.10
2023-03-22T10:40:08.143Z,2.90
2023-03-22T10:42:38.547Z,2.70
2023-03-22T10:45:13.125Z,3.03
2023-03-22T10:47:45.893Z,3.27
2023-03-22T10:50:19.349Z,2.70
2023-03-22T10:52:52.462Z,3.37
2023-03-22T10:55:20.342Z,3.10
2023-03-22T10:57:55.658Z,2.30
2023-03-22T11:00:28.576Z,2.57
2023-03-22T11:03:00.550Z,2.60
2023-03-22T11:05:30.068Z,2.47
2023-03-22T11:07:59.127Z,2.90
2023-03-22T11:10:29.758Z,2.80
2023-03-22T11:13:12.994Z,2.93
2023-03-22T11:15:49.928Z,2.50
2023-03-22T11:18:19.336Z,2.17
2023-03-22T11:20:58.045Z,2.87
2023-03-22T11:23:26.783Z,3.03
2023-03-22T11:25:57.653Z,2.50
2023-03-22T11:28:33.957Z,3.17
2023-03-22T11:31:07.547Z,2.67
2023-03-22T11:33:36.792Z,2.40
2023-03-22T11:36:15.874Z,2.87
2023-03-22T11:38:45.676Z,2.90
2023-03-22T11:41:23.308Z,3.00
2023-03-22T11:43:54.702Z,3.30
2023-03-22T11:46:24.582Z,2.60
2023-03-22T11:48:53.974Z,3.10
2023-03-22T11:51:30.744Z,2.80
2023-03-22T11:54:06.516Z,3.60
2023-03-22T11:56:34.996Z,3.40
2023-03-22T11:59:08.698Z,2.93
2023-03-22T12:01:41.850Z,2.70
2023-03-22T12:04:16.413Z,3.80
2023-03-22T12:06:44.529Z,3.33
2023-03-22T12:09:23.157Z,3.20
2023-03-22T12:11:54.261Z,4.10
2023-03-22T12:14:26.766Z,4.30
2023-03-22T12:17:00.412Z,3.57
2023-03-22T12:19:42.695Z,3.47
2023-03-22T12:22:13.746Z,3.40
2023-03-22T12:24:42.982Z,2.90
2023-03-22T12:27:17.858Z,3.67
2023-03-22T12:29:51.497Z,3.47
2023-03-22T12:32:25.727Z,4.70
2023-03-22T12:35:01.384Z,3.30
2023-03-22T12:37:40.079Z,3.20
2023-03-22T12:40:16.610Z,2.80
2023-03-22T12:42:55.472Z,3.40
2023-03-22T12:45:28.515Z,2.93
2023-03-22T12:48:04.591Z,4.27
2023-03-22T12:50:37.342Z,3.47
2023-03-22T12:53:06.420Z,3.50
2023-03-22T12:55:36.686Z,3.80
2023-03-22T12:58:07.485Z,3.23
2023-03-22T13:00:41.434Z,3.73
2023-03-22T13:03:24.069Z,3.47
2023-03-22T13:06:01.648Z,2.60
2023-03-22T13:09:03.830Z,3.43
2023-03-22T13:11:33.030Z,2.70
2023-03-22T13:14:00.823Z,3.17
2023-03-22T13:16:50.592Z,3.30
2023-03-22T13:19:28.788Z,3.00
2023-03-22T13:22:26.971Z,2.93
2023-03-22T13:25:29.039Z,3.20
2023-03-22T13:27:59.852Z,3.13
2023-03-22T13:30:32.915Z,3.90
2023-03-22T13:33:04.552Z,3.20
2023-03-22T13:35:44.423Z,3.00
2023-03-22T13:38:20.938Z,3.77
2023-03-22T13:40:54.656Z,3.30
2023-03-22T13:43:30.995Z,4.00
2023-03-22T13:46:16.324Z,3.03
2023-03-22T13:49:00.341Z,2.77
2023-03-22T13:51:31.895Z,3.87
2023-03-22T13:54:07.845Z,3.70
2023-03-22T13:56:52.836Z,3.20
2023-03-22T13:59:26.992Z,3.17
2023-03-22T14:01:58.285Z,3.13
2023-03-22T14:04:34.937Z,2.50
2023-03-22T14:07:09.215Z,2.97
2023-03-22T14:09:44.350Z,3.10
2023-03-22T14:12:20.627Z,2.90
2023-03-22T14:14:54.808Z,3.10
2023-03-22T14:17:30.789Z,3.20
2023-03-22T14:19:59.269Z,3.43
